Time;durP1;ratioP1;P1;durP2;ratioP2;P2;SDS_P1;SDS_P2;PMS_P1;PMS_P2;Temp;Humidity;BMP_temperature;BMP_pressure;BME280_temperature;BME280_humidity;BME280_pressure;Samples;Min_cycle;Max_cycle;Signal;HPM_P1;HPM_P2
2021/05/08 00:02:08;;;;;;;18.00;5.88;;;14.50;98.40;;;;;;5048639;28;20366;-88
2021/05/08 00:04:34;;;;;;;22.90;7.18;;;14.50;98.50;;;;;;5031547;28;20036;-88
2021/05/08 00:06:59;;;;;;;24.50;6.20;;;14.40;98.30;;;;;;5049572;28;20017;-88
2021/05/08 00:09:27;;;;;;;24.13;6.10;;;14.40;98.10;;;;;;5031717;28;20029;-89
2021/05/08 00:11:55;;;;;;;28.25;7.72;;;14.40;98.20;;;;;;5049673;28;20047;-89
2021/05/08 00:14:22;;;;;;;22.55;6.30;;;14.40;98.10;;;;;;5052360;28;20124;-89
2021/05/08 00:16:47;;;;;;;20.42;6.63;;;14.50;98.10;;;;;;5049988;28;20147;-88
2021/05/08 00:19:13;;;;;;;15.57;5.55;;;14.50;98.00;;;;;;5049258;28;20213;-88
2021/05/08 00:21:39;;;;;;;21.88;5.72;;;14.50;98.00;;;;;;5049734;28;20063;-88
2021/05/08 00:24:05;;;;;;;18.55;6.32;;;14.50;98.00;;;;;;5049113;28;20098;-89
2021/05/08 00:26:31;;;;;;;21.85;6.35;;;14.50;98.10;;;;;;5031972;28;20021;-89
2021/05/08 00:28:58;;;;;;;15.73;5.70;;;14.50;98.10;;;;;;5049520;28;20032;-89
2021/05/08 00:31:23;;;;;;;17.58;5.78;;;14.50;98.00;;;;;;5049466;28;20025;-89
2021/05/08 00:33:49;;;;;;;17.70;5.60;;;14.50;98.10;;;;;;5031002;28;20123;-89
2021/05/08 00:36:15;;;;;;;21.45;5.50;;;14.50;98.40;;;;;;5031609;28;20478;-89
2021/05/08 00:38:41;;;;;;;22.85;6.70;;;14.50;98.00;;;;;;5048790;28;20571;-88
2021/05/08 00:41:07;;;;;;;23.17;6.18;;;14.50;98.00;;;;;;5049699;28;20040;-88
2021/05/08 00:43:33;;;;;;;19.33;5.03;;;14.50;98.00;;;;;;5048792;28;20629;-88
2021/05/08 00:45:59;;;;;;;23.55;5.60;;;14.50;98.10;;;;;;5049816;28;20025;-88
2021/05/08 00:48:27;;;;;;;21.42;6.40;;;14.40;98.10;;;;;;5049048;28;20035;-88
2021/05/08 00:50:53;;;;;;;23.58;6.40;;;14.40;98.00;;;;;;5049618;28;20116;-88
2021/05/08 00:53:19;;;;;;;29.33;6.40;;;14.40;98.20;;;;;;5026770;28;20037;-88
2021/05/08 00:55:45;;;;;;;19.65;5.95;;;14.40;98.20;;;;;;5031813;28;20374;-89
2021/05/08 00:58:10;;;;;;;17.33;5.93;;;14.40;98.30;;;;;;5031110;28;20063;-88
2021/05/08 01:00:37;;;;;;;21.40;5.70;;;14.40;98.30;;;;;;5031474;28;20104;-88
2021/05/08 01:03:05;;;;;;;27.98;7.03;;;14.40;98.30;;;;;;5048802;28;20039;-88
2021/05/08 01:05:34;;;;;;;18.65;6.35;;;14.30;98.40;;;;;;5049555;28;20025;-89
2021/05/08 01:08:03;;;;;;;20.65;6.25;;;14.30;98.50;;;;;;5049211;28;20097;-88
2021/05/08 01:10:30;;;;;;;18.10;6.05;;;14.30;98.50;;;;;;5044098;28;20036;-89
2021/05/08 01:12:57;;;;;;;21.15;6.03;;;14.30;98.50;;;;;;5049944;28;20385;-88
2021/05/08 01:15:23;;;;;;;19.88;6.25;;;14.30;98.40;;;;;;5035071;28;20060;-88
2021/05/08 01:17:50;;;;;;;24.42;6.68;;;14.20;98.40;;;;;;5052656;28;20083;-88
2021/05/08 01:20:16;;;;;;;22.92;6.60;;;14.20;98.60;;;;;;5052924;28;20104;-88
2021/05/08 01:22:42;;;;;;;22.23;7.13;;;14.20;98.60;;;;;;5052612;28;20108;-88
2021/05/08 01:25:16;;;;;;;22.25;6.40;;;14.20;98.80;;;;;;5052709;28;20036;-88
2021/05/08 01:27:48;;;;;;;22.47;5.93;;;14.30;98.50;;;;;;5034283;28;20562;-88
2021/05/08 01:30:17;;;;;;;26.02;6.55;;;14.20;98.60;;;;;;5052953;28;20279;-88
2021/05/08 01:32:43;;;;;;;23.40;6.88;;;14.20;98.70;;;;;;5052857;28;20053;-89
2021/05/08 01:35:10;;;;;;;19.50;6.35;;;14.10;98.80;;;;;;5052787;28;20025;-88
2021/05/08 01:37:36;;;;;;;26.58;7.65;;;14.20;98.90;;;;;;5034402;28;20509;-89
2021/05/08 01:40:08;;;;;;;19.95;7.03;;;14.10;99.00;;;;;;5052691;28;20057;-88
2021/05/08 01:42:34;;;;;;;22.13;7.00;;;14.10;99.10;;;;;;5052258;28;20033;-88
2021/05/08 01:45:26;;;;;;;27.40;7.75;;;14.10;99.00;;;;;;5052346;28;20040;-88
2021/05/08 01:47:52;;;;;;;25.45;6.72;;;14.10;99.10;;;;;;5049175;28;20048;-88
2021/05/08 01:50:24;;;;;;;26.88;7.40;;;14.20;99.00;;;;;;5052479;28;20408;-88
2021/05/08 01:52:50;;;;;;;19.70;6.70;;;14.10;99.20;;;;;;5052728;28;20025;-88
2021/05/08 01:55:17;;;;;;;26.45;7.10;;;14.10;99.00;;;;;;5034298;28;20045;-88
2021/05/08 01:57:51;;;;;;;25.58;6.68;;;14.20;98.80;;;;;;5052252;28;20114;-88
2021/05/08 02:00:19;;;;;;;24.73;7.32;;;14.20;98.90;;;;;;5034422;28;20184;-88
2021/05/08 02:02:49;;;;;;;25.23;6.88;;;14.10;98.90;;;;;;5051522;28;20452;-87
2021/05/08 02:05:15;;;;;;;25.98;7.53;;;14.10;98.80;;;;;;5052142;28;20037;-88
2021/05/08 02:07:41;;;;;;;24.83;7.40;;;14.20;98.90;;;;;;5051547;28;20396;-88
2021/05/08 02:10:09;;;;;;;17.15;6.60;;;14.20;98.80;;;;;;5052098;28;20485;-88
2021/05/08 02:12:37;;;;;;;19.65;6.57;;;14.20;98.80;;;;;;5040667;28;20072;-88
2021/05/08 02:15:08;;;;;;;20.42;6.68;;;14.20;98.80;;;;;;5033818;28;20059;-88
2021/05/08 02:17:35;;;;;;;23.52;6.20;;;14.20;98.80;;;;;;5051546;28;20550;-88
2021/05/08 02:20:04;;;;;;;21.35;6.63;;;14.20;98.80;;;;;;5051852;28;20017;-88
2021/05/08 02:22:29;;;;;;;21.92;6.50;;;14.20;98.80;;;;;;5051583;28;20033;-89
2021/05/08 02:24:55;;;;;;;26.30;7.60;;;14.20;98.80;;;;;;5050713;28;20037;-88
2021/05/08 02:27:21;;;;;;;24.95;7.20;;;14.20;98.80;;;;;;5051608;28;20045;-88
2021/05/08 02:29:46;;;;;;;23.77;7.30;;;14.20;98.90;;;;;;5052063;28;20024;-89
2021/05/08 02:32:12;;;;;;;22.15;6.88;;;14.10;98.70;;;;;;5051970;28;20090;-88
2021/05/08 02:34:38;;;;;;;19.17;6.57;;;14.20;98.80;;;;;;5051670;28;20490;-88
2021/05/08 02:37:04;;;;;;;24.00;7.13;;;14.10;98.80;;;;;;5051331;28;20047;-85
2021/05/08 02:39:29;;;;;;;27.77;7.75;;;14.10;98.80;;;;;;5051344;28;20099;-88
2021/05/08 02:41:55;;;;;;;24.77;7.13;;;14.00;98.90;;;;;;5033519;28;20521;-89
2021/05/08 02:44:21;;;;;;;24.83;6.70;;;14.10;98.90;;;;;;5050918;28;20112;-89
2021/05/08 02:46:46;;;;;;;26.58;7.13;;;14.10;98.80;;;;;;5033620;28;20108;-89
2021/05/08 02:49:12;;;;;;;21.55;7.95;;;14.00;98.90;;;;;;5050898;28;20311;-89
2021/05/08 02:51:38;;;;;;;17.83;6.85;;;14.00;98.90;;;;;;5051654;28;20428;-88
2021/05/08 02:54:04;;;;;;;19.55;7.53;;;14.10;98.90;;;;;;5050938;28;20053;-89
2021/05/08 02:56:30;;;;;;;24.08;7.30;;;14.10;99.00;;;;;;5051275;28;20028;-89
2021/05/08 02:58:55;;;;;;;23.27;6.82;;;14.00;98.90;;;;;;5050319;28;20041;-89
2021/05/08 03:01:21;;;;;;;19.73;6.53;;;14.10;98.70;;;;;;5051080;28;20096;-88
2021/05/08 03:03:46;;;;;;;27.63;7.20;;;14.10;98.70;;;;;;5050609;28;20024;-88
2021/05/08 03:06:12;;;;;;;24.52;7.00;;;14.00;98.80;;;;;;5051158;28;20021;-88
2021/05/08 03:08:38;;;;;;;27.70;7.35;;;14.10;98.70;;;;;;5050745;28;20017;-88
2021/05/08 03:11:04;;;;;;;25.35;8.20;;;14.00;98.80;;;;;;5050952;28;20374;-88
2021/05/08 03:13:31;;;;;;;25.50;7.80;;;14.00;99.00;;;;;;5050302;28;20025;-88
2021/05/08 03:15:57;;;;;;;25.30;6.65;;;14.00;99.20;;;;;;5051010;28;20021;-88
2021/05/08 03:18:23;;;;;;;29.58;8.00;;;14.00;99.10;;;;;;5050329;28;20029;-88
2021/05/08 03:20:48;;;;;;;26.35;7.32;;;13.90;99.10;;;;;;5050984;28;20389;-88
2021/05/08 03:23:14;;;;;;;22.15;7.60;;;13.90;99.00;;;;;;5050000;28;20036;-89
2021/05/08 03:25:40;;;;;;;22.38;7.40;;;13.90;99.00;;;;;;5050824;28;20029;-87
2021/05/08 03:28:05;;;;;;;24.02;7.13;;;13.90;99.00;;;;;;5032069;28;20025;-88
2021/05/08 03:30:32;;;;;;;22.45;7.10;;;13.90;99.10;;;;;;5042594;28;20409;-89
2021/05/08 03:32:57;;;;;;;27.20;6.70;;;13.90;98.90;;;;;;5032429;28;20036;-89
2021/05/08 03:35:23;;;;;;;24.92;6.85;;;13.90;98.80;;;;;;5050626;28;20021;-89
2021/05/08 03:37:49;;;;;;;27.20;7.10;;;13.90;98.90;;;;;;5050156;28;20024;-89
2021/05/08 03:40:15;;;;;;;24.30;7.68;;;13.90;98.90;;;;;;5050432;28;20029;-89
2021/05/08 03:42:41;;;;;;;22.80;6.85;;;13.90;98.90;;;;;;5052392;28;20017;-88
2021/05/08 03:45:07;;;;;;;23.83;6.47;;;14.00;98.90;;;;;;5055928;28;20402;-89
2021/05/08 03:47:32;;;;;;;24.65;6.85;;;14.00;99.00;;;;;;5050896;28;20079;-89
2021/05/08 03:49:58;;;;;;;28.00;7.10;;;14.00;98.80;;;;;;5050180;28;20029;-88
2021/05/08 03:52:24;;;;;;;23.10;6.80;;;14.00;98.80;;;;;;5049635;28;20021;-88
2021/05/08 03:54:50;;;;;;;22.35;6.85;;;14.00;98.90;;;;;;5027384;28;20508;-88
2021/05/08 03:57:16;;;;;;;25.90;7.07;;;13.90;98.90;;;;;;5049639;28;20024;-89
2021/05/08 03:59:42;;;;;;;20.80;7.32;;;13.90;98.80;;;;;;5049896;28;20025;-89
2021/05/08 04:02:09;;;;;;;17.90;6.78;;;13.90;98.80;;;;;;5053424;28;20021;-88
2021/05/08 04:04:34;;;;;;;20.48;7.03;;;14.00;98.90;;;;;;5039403;28;20213;-89
2021/05/08 04:07:00;;;;;;;22.40;6.82;;;14.00;99.00;;;;;;5056430;28;20021;-89
2021/05/08 04:09:26;;;;;;;20.40;6.60;;;14.00;99.10;;;;;;5055619;28;20112;-89
2021/05/08 04:11:51;;;;;;;27.42;7.30;;;14.00;99.20;;;;;;5055726;28;20425;-88
2021/05/08 04:14:17;;;;;;;27.13;9.02;;;13.90;99.20;;;;;;5055311;28;20025;-89
2021/05/08 04:16:44;;;;;;;23.92;7.35;;;14.00;99.00;;;;;;5055376;28;20048;-89
2021/05/08 04:19:09;;;;;;;25.00;8.50;;;13.90;99.00;;;;;;5053730;28;20048;-88
2021/05/08 04:21:35;;;;;;;22.75;7.38;;;13.90;99.10;;;;;;5036491;28;20029;-89
2021/05/08 04:24:01;;;;;;;19.73;6.47;;;13.90;99.20;;;;;;5053420;28;20474;-89
2021/05/08 04:26:27;;;;;;;25.23;6.80;;;13.90;99.10;;;;;;5049962;28;20025;-88
2021/05/08 04:28:52;;;;;;;23.35;7.97;;;13.90;99.00;;;;;;5049710;28;20044;-88
2021/05/08 04:31:20;;;;;;;17.05;6.78;;;13.80;99.10;;;;;;5050138;28;20036;-88
2021/05/08 04:33:46;;;;;;;26.25;7.13;;;13.80;99.10;;;;;;5031250;28;20048;-88
2021/05/08 04:36:11;;;;;;;29.13;7.75;;;13.80;99.00;;;;;;5050041;28;20442;-88
2021/05/08 04:38:40;;;;;;;21.08;7.05;;;13.80;99.10;;;;;;5049095;28;20025;-88
2021/05/08 04:41:07;;;;;;;21.23;7.32;;;13.80;99.50;;;;;;5050017;28;20036;-88
2021/05/08 04:43:32;;;;;;;26.17;8.23;;;13.70;99.30;;;;;;5049177;28;20037;-88
2021/05/08 04:45:58;;;;;;;22.95;6.72;;;13.70;99.30;;;;;;5049849;28;20108;-88
2021/05/08 04:48:26;;;;;;;21.38;7.32;;;13.70;99.00;;;;;;5032927;28;20025;-88
2021/05/08 04:50:53;;;;;;;18.50;6.50;;;13.70;98.90;;;;;;5054611;28;20028;-89
2021/05/08 04:53:19;;;;;;;16.85;6.65;;;13.70;98.50;;;;;;5053631;28;20537;-88
2021/05/08 04:55:49;;;;;;;18.27;6.72;;;13.70;98.40;;;;;;5053665;28;20076;-89
2021/05/08 04:58:15;;;;;;;19.02;6.80;;;13.60;98.50;;;;;;5053017;28;20272;-88
2021/05/08 05:00:41;;;;;;;21.13;6.63;;;13.60;98.50;;;;;;5054095;28;20032;-90
2021/05/08 05:03:07;;;;;;;18.73;6.60;;;13.60;98.40;;;;;;5042592;28;20020;-88
2021/05/08 05:05:33;;;;;;;15.75;6.10;;;13.50;98.40;;;;;;5044508;28;20126;-88
2021/05/08 05:07:59;;;;;;;26.25;7.38;;;13.50;98.30;;;;;;5052835;28;20029;-89
2021/05/08 05:10:24;;;;;;;20.42;7.00;;;13.50;98.40;;;;;;5053456;28;20076;-89
2021/05/08 05:12:50;;;;;;;22.88;7.32;;;13.50;98.70;;;;;;5052454;28;20033;-89
2021/05/08 05:15:17;;;;;;;14.93;6.43;;;13.60;98.70;;;;;;5052987;28;20013;-91
2021/05/08 05:17:43;;;;;;;17.23;6.72;;;13.50;98.50;;;;;;5036112;28;20122;-91
2021/05/08 05:20:10;;;;;;;20.30;6.55;;;13.60;98.90;;;;;;5036056;28;20025;-91
2021/05/08 05:22:36;;;;;;;19.63;6.85;;;13.60;98.40;;;;;;5053459;28;20088;-91
2021/05/08 05:25:03;;;;;;;14.48;6.15;;;13.60;98.30;;;;;;5029725;28;20521;-91
2021/05/08 05:27:29;;;;;;;23.08;8.32;;;13.60;98.40;;;;;;5035495;28;20029;-91
2021/05/08 05:29:55;;;;;;;23.73;7.18;;;13.60;98.70;;;;;;5053452;28;20025;-90
2021/05/08 05:32:21;;;;;;;18.30;6.78;;;13.70;98.90;;;;;;5035348;28;20025;-91
2021/05/08 05:34:46;;;;;;;15.52;7.10;;;13.70;98.60;;;;;;5053543;28;20083;-91
2021/05/08 05:37:12;;;;;;;19.80;6.90;;;13.70;98.60;;;;;;5053063;28;20048;-90
2021/05/08 05:39:38;;;;;;;21.88;7.82;;;13.80;98.60;;;;;;5053294;28;20025;-92
2021/05/08 05:42:04;;;;;;;15.15;6.30;;;13.80;98.50;;;;;;5053314;28;20104;-92
2021/05/08 05:44:30;;;;;;;25.90;7.32;;;13.90;98.30;;;;;;5035310;28;20473;-91
2021/05/08 05:46:55;;;;;;;14.32;6.30;;;13.90;98.40;;;;;;5035525;28;20028;-92
2021/05/08 05:49:21;;;;;;;17.05;6.75;;;14.00;98.40;;;;;;5034552;28;20025;-93
2021/05/08 05:51:47;;;;;;;20.35;6.78;;;14.00;98.50;;;;;;5035221;28;20033;-89
2021/05/08 05:54:13;;;;;;;18.88;6.65;;;14.10;98.70;;;;;;5021382;28;20045;-91
2021/05/08 05:56:38;;;;;;;21.27;6.65;;;14.00;98.50;;;;;;5012054;28;20030;-92
2021/05/08 05:59:04;;;;;;;16.30;6.15;;;14.10;98.50;;;;;;5002640;28;20060;-94
2021/05/08 06:01:32;;;;;;;22.75;5.90;;;14.20;98.30;;;;;;5012698;28;20376;-83
2021/05/08 06:03:58;;;;;;;15.80;5.40;;;14.30;97.60;;;;;;5013311;28;20033;-94
2021/05/08 06:06:23;;;;;;;15.90;5.38;;;14.30;97.30;;;;;;5013046;28;20025;-86
2021/05/08 06:08:55;;;;;;;16.45;5.60;;;14.40;97.20;;;;;;5013106;28;20026;-95
2021/05/08 06:11:21;;;;;;;17.70;5.88;;;14.40;97.20;;;;;;5012916;28;20022;-94
2021/05/08 06:13:47;;;;;;;14.75;5.43;;;14.50;97.20;;;;;;5012465;28;20560;-95
2021/05/08 06:16:13;;;;;;;15.32;5.00;;;14.50;97.00;;;;;;5013241;28;20072;-93
2021/05/08 06:18:46;;;;;;;20.20;5.05;;;14.60;96.40;;;;;;5004332;28;20022;-94
2021/05/08 06:21:14;;;;;;;20.90;5.55;;;14.60;96.50;;;;;;5011936;28;20060;-95
2021/05/08 06:23:40;;;;;;;17.20;4.80;;;14.60;96.40;;;;;;5011201;28;20034;-92
2021/05/08 06:26:11;;;;;;;14.40;5.03;;;14.60;96.30;;;;;;5012241;28;20033;-95
2021/05/08 06:28:37;;;;;;;18.38;5.32;;;14.70;96.10;;;;;;5011463;28;20071;-93
2021/05/08 06:31:05;;;;;;;13.27;4.72;;;14.80;96.00;;;;;;5011763;28;20030;-95
2021/05/08 06:33:31;;;;;;;10.38;4.55;;;14.80;95.70;;;;;;5011598;28;20066;-95
2021/05/08 06:35:59;;;;;;;19.05;4.82;;;14.90;95.80;;;;;;5013012;28;20020;-96
2021/05/08 06:38:36;;;;;;;16.70;5.40;;;14.90;95.70;;;;;;5011964;28;20505;-95
2021/05/08 06:41:22;;;;;;;17.80;5.80;;;14.90;95.70;;;;;;5012641;28;20018;-96
2021/05/08 06:44:30;;;;;;;;;;;;;;;;;;;;;
2021/05/08 06:47:07;;;;;;;;;;;;;;;;;;;;;
2021/05/08 06:49:41;;;;;;;18.42;6.45;;;15.00;95.90;;;;;;5006243;28;20526;-94
2021/05/08 06:52:25;;;;;;;14.32;6.70;;;15.00;95.70;;;;;;5011745;28;20292;-95
2021/05/08 06:54:51;;;;;;;13.35;6.45;;;14.80;96.00;;;;;;5026968;28;20307;-94
2021/05/08 06:57:17;;;;;;;14.57;6.68;;;14.80;95.90;;;;;;5012772;28;20030;-93
2021/05/08 06:59:42;;;;;;;14.57;6.88;;;14.70;96.30;;;;;;5012770;28;20025;-94
2021/05/08 07:04:55;;;;;;;18.15;6.07;;;14.50;96.50;;;;;;5015695;28;20061;-94
2021/05/08 07:07:32;;;;;;;13.07;6.13;;;14.50;96.80;;;;;;5013647;28;20022;-95
2021/05/08 07:09:58;;;;;;;20.23;6.45;;;14.60;96.90;;;;;;5013096;28;20084;-95
2021/05/08 07:12:43;;;;;;;18.23;6.18;;;14.70;96.70;;;;;;5012045;28;20429;-95
2021/05/08 07:15:44;;;;;;;;;;;;;;;;;;;;;
2021/05/08 07:18:06;;;;;;;19.63;6.32;;;15.10;96.80;;;;;;5015804;28;20030;-95
2021/05/08 07:20:42;;;;;;;14.55;7.15;;;15.20;96.00;;;;;;5015523;28;20079;-95
2021/05/08 07:23:11;;;;;;;12.75;7.03;;;15.30;96.30;;;;;;5011615;28;20072;-95
2021/05/08 07:25:37;;;;;;;15.60;6.30;;;15.30;95.80;;;;;;5006409;28;20044;-90
2021/05/08 07:28:19;;;;;;;15.43;6.85;;;15.20;95.80;;;;;;5021401;28;20033;-94
2021/05/08 07:30:52;;;;;;;14.15;6.72;;;15.20;96.00;;;;;;5028004;28;20533;-96
2021/05/08 07:33:37;;;;;;;12.98;5.82;;;15.10;95.90;;;;;;5013624;28;20046;-94
2021/05/08 07:36:10;;;;;;;18.63;7.68;;;15.20;96.00;;;;;;5008077;28;20035;-94
2021/05/08 07:38:36;;;;;;;11.98;7.28;;;15.20;95.90;;;;;;5004023;28;20080;-94
2021/05/08 07:41:02;;;;;;;12.82;7.00;;;15.20;95.80;;;;;;5015915;28;20021;-95
2021/05/08 07:43:28;;;;;;;11.23;6.00;;;15.20;95.70;;;;;;5010892;28;20026;-92
2021/05/08 07:45:54;;;;;;;9.10;5.80;;;15.30;95.80;;;;;;5012501;28;20153;-93
2021/05/08 07:48:22;;;;;;;14.30;7.53;;;15.60;95.00;;;;;;5013863;28;20014;-94
2021/05/08 07:50:57;;;;;;;11.05;6.93;;;15.40;94.80;;;;;;5012625;28;20422;-95
2021/05/08 07:53:23;;;;;;;11.85;6.28;;;15.20;95.50;;;;;;5018206;28;20022;-94
2021/05/08 07:55:49;;;;;;;9.32;6.40;;;15.30;95.30;;;;;;5040307;28;20052;-93
2021/05/08 07:58:37;;;;;;;13.57;6.88;;;15.30;95.00;;;;;;5040153;28;20037;-94
2021/05/08 08:01:06;;;;;;;11.55;6.80;;;15.30;95.20;;;;;;5037177;28;20203;-93
2021/05/08 08:03:32;;;;;;;13.80;6.30;;;15.30;95.20;;;;;;5041084;28;20033;-95
2021/05/08 08:05:58;;;;;;;12.75;7.63;;;15.30;95.10;;;;;;5042444;28;20395;-94
2021/05/08 08:08:30;;;;;;;11.95;6.95;;;15.10;95.50;;;;;;5067549;28;20009;-95
2021/05/08 08:11:16;;;;;;;11.38;6.60;;;15.00;96.10;;;;;;5049453;28;20029;-93
2021/05/08 08:13:41;;;;;;;13.20;6.32;;;15.10;95.70;;;;;;5045295;28;20021;-93
2021/05/08 08:16:18;;;;;;;8.00;5.47;;;15.20;95.10;;;;;;5062195;28;20469;-94
2021/05/08 08:18:44;;;;;;;11.43;5.63;;;15.40;94.80;;;;;;5042770;28;20025;-89
2021/05/08 08:21:13;;;;;;;12.65;5.60;;;15.60;94.60;;;;;;5052081;28;20036;-92
2021/05/08 08:23:43;;;;;;;11.93;5.78;;;15.60;94.10;;;;;;5036188;28;20116;-94
2021/05/08 08:26:13;;;;;;;8.80;4.97;;;15.70;94.40;;;;;;5042014;28;20029;-92
2021/05/08 08:28:38;;;;;;;8.32;4.93;;;15.70;94.40;;;;;;5039769;28;20066;-95
2021/05/08 08:31:07;;;;;;;14.02;4.93;;;15.90;94.20;;;;;;5036296;28;20037;-96
2021/05/08 08:33:33;;;;;;;11.77;5.32;;;16.00;93.60;;;;;;5040197;28;20032;-93
2021/05/08 08:35:59;;;;;;;10.98;4.82;;;16.10;93.20;;;;;;5047109;28;20116;-94
2021/05/08 08:38:27;;;;;;;13.93;4.50;;;16.30;93.00;;;;;;5037481;28;20025;-94
2021/05/08 08:40:56;;;;;;;7.70;4.00;;;16.20;92.60;;;;;;5041208;28;20025;-96
2021/05/08 08:43:29;;;;;;;11.68;4.82;;;16.30;92.40;;;;;;5044058;28;20033;-94
2021/05/08 08:46:05;;;;;;;10.00;4.18;;;16.40;92.20;;;;;;5055836;28;20064;-91
2021/05/08 08:48:31;;;;;;;12.77;3.65;;;16.40;92.00;;;;;;5053181;28;20017;-94
2021/05/08 08:50:57;;;;;;;12.63;3.80;;;16.60;91.30;;;;;;5039483;28;20029;-90
2021/05/08 08:53:24;;;;;;;8.35;4.00;;;16.70;91.20;;;;;;5037161;28;20025;-92
2021/05/08 08:55:55;;;;;;;8.88;3.15;;;16.70;91.10;;;;;;5054074;28;20076;-93
2021/05/08 08:58:31;;;;;;;10.52;3.13;;;16.70;91.60;;;;;;5058461;28;20029;-93
2021/05/08 09:01:00;;;;;;;9.10;3.60;;;16.90;90.10;;;;;;5026949;28;20075;-93
2021/05/08 09:03:27;;;;;;;10.18;3.33;;;17.00;91.10;;;;;;5054653;28;20029;-96
2021/05/08 09:05:53;;;;;;;9.45;3.13;;;17.10;90.30;;;;;;5058722;28;20077;-95
2021/05/08 09:08:19;;;;;;;9.65;3.53;;;17.10;90.70;;;;;;5051360;28;20336;-95
2021/05/08 09:10:45;;;;;;;9.82;3.70;;;17.20;90.50;;;;;;5050412;28;20691;-91
2021/05/08 09:13:22;;;;;;;13.25;4.60;;;17.10;90.40;;;;;;5036895;28;20102;-95
2021/05/08 09:15:52;;;;;;;7.45;2.92;;;16.90;90.90;;;;;;5028420;28;20036;-92
2021/05/08 09:18:35;;;;;;;10.77;3.00;;;17.00;89.10;;;;;;5034228;28;20025;-92
2021/05/08 09:21:03;;;;;;;5.60;2.90;;;17.10;89.10;;;;;;5049997;28;20060;-91
2021/05/08 09:23:34;;;;;;;7.55;2.95;;;17.30;88.50;;;;;;5036754;28;20032;-94
2021/05/08 09:26:03;;;;;;;8.82;2.63;;;17.30;88.50;;;;;;5027638;28;20506;-93
2021/05/08 09:29:01;;;;;;;6.70;2.08;;;17.40;83.30;;;;;;5035780;28;20017;-93
2021/05/08 09:31:26;;;;;;;5.82;1.85;;;17.50;83.50;;;;;;4983883;28;20523;-94
2021/05/08 09:33:55;;;;;;;9.00;1.75;;;17.50;82.70;;;;;;5028194;28;20098;-95
2021/05/08 09:36:21;;;;;;;8.82;2.40;;;17.70;80.40;;;;;;5036596;28;20028;-92
2021/05/08 09:38:47;;;;;;;6.85;2.20;;;17.80;82.00;;;;;;5035685;28;20025;-95
2021/05/08 09:41:19;;;;;;;7.93;2.50;;;17.80;83.40;;;;;;5036498;28;20463;-94
2021/05/08 09:43:45;;;;;;;8.48;2.50;;;17.80;83.10;;;;;;5036881;28;20029;-94
2021/05/08 09:46:32;;;;;;;8.60;2.60;;;17.80;82.10;;;;;;5054540;28;20473;-91
2021/05/08 09:49:10;;;;;;;9.90;2.70;;;17.90;84.60;;;;;;5030915;28;20025;-91
2021/05/08 09:51:36;;;;;;;6.90;3.35;;;18.00;81.70;;;;;;5035887;28;20061;-93
2021/05/08 09:54:18;;;;;;;7.72;3.45;;;17.90;85.40;;;;;;5027182;28;20454;-94
2021/05/08 09:56:45;;;;;;;10.80;3.20;;;18.10;85.30;;;;;;5009758;28;20026;-94
2021/05/08 09:59:28;;;;;;;7.82;3.28;;;18.10;84.70;;;;;;5014198;28;20022;-94
2021/05/08 10:02:06;;;;;;;6.43;2.80;;;18.30;85.30;;;;;;5014599;28;20038;-93
2021/05/08 10:04:46;;;;;;;7.22;3.28;;;18.20;83.80;;;;;;5013123;28;20120;-95
2021/05/08 10:07:21;;;;;;;8.43;3.90;;;18.20;84.80;;;;;;5016936;28;20410;-96
2021/05/08 10:09:59;;;;;;;7.70;3.50;;;18.20;84.40;;;;;;5012046;28;20057;-96
2021/05/08 10:12:27;;;;;;;8.55;3.72;;;18.40;84.40;;;;;;5016365;28;20040;-96
2021/05/08 10:15:03;;;;;;;7.90;3.22;;;18.50;85.10;;;;;;5010535;28;20026;-94
2021/05/08 10:17:39;;;;;;;5.22;2.67;;;18.70;80.90;;;;;;5017016;28;20048;-95
2021/05/08 10:20:13;;;;;;;8.13;2.63;;;18.90;81.50;;;;;;5015031;28;20040;-95
2021/05/08 10:22:59;;;;;;;6.85;2.35;;;19.10;77.00;;;;;;5014686;28;20113;-91
2021/05/08 10:25:29;;;;;;;6.40;2.33;;;19.20;76.70;;;;;;5015721;28;20041;-94
2021/05/08 10:28:06;;;;;;;5.97;2.17;;;19.10;78.00;;;;;;5021229;28;20029;-94
2021/05/08 10:30:44;;;;;;;8.50;2.70;;;19.20;76.20;;;;;;5016131;28;20030;-94
2021/05/08 10:33:21;;;;;;;8.45;3.42;;;19.50;76.00;;;;;;5012286;28;20036;-87
2021/05/08 10:35:50;;;;;;;8.45;2.50;;;19.60;74.90;;;;;;5010844;28;20203;-89
2021/05/08 10:38:34;;;;;;;7.55;2.60;;;19.70;72.60;;;;;;5011185;28;20022;-88
2021/05/08 10:41:02;;;;;;;11.13;2.67;;;19.90;71.90;;;;;;5013723;28;20018;-90
2021/05/08 10:43:51;;;;;;;20.52;13.15;;;20.10;71.00;;;;;;5007847;28;20399;-90
2021/05/08 10:46:27;;;;;;;19.00;12.60;;;20.00;71.00;;;;;;5008995;28;20021;-92
2021/05/08 10:49:14;;;;;;;8.43;4.20;;;19.90;71.30;;;;;;5005782;28;20033;-88
2021/05/08 10:51:52;;;;;;;9.18;3.10;;;20.10;71.30;;;;;;5013216;28;20030;-89
2021/05/08 10:54:37;;;;;;;7.30;3.28;;;20.20;72.60;;;;;;5026458;28;20037;-90
2021/05/08 10:57:32;;;;;;;;;;;20.20;73.00;;;;;;5052898;28;20025;-92
2021/05/08 11:00:09;;;;;;;9.17;3.63;;;20.30;72.60;;;;;;5034962;28;20231;-91
2021/05/08 11:02:49;;;;;;;11.30;3.80;;;20.20;74.50;;;;;;5047586;28;20299;-92
2021/05/08 11:05:28;;;;;;;9.80;4.18;;;20.30;73.60;;;;;;5047659;28;20131;-91
2021/05/08 11:07:54;;;;;;;12.80;5.13;;;19.90;75.00;;;;;;5034354;28;20558;-92
2021/05/08 11:10:36;;;;;;;8.88;3.60;;;20.00;75.00;;;;;;5038137;28;20033;-88
2021/05/08 11:13:43;;;;;;;8.60;3.78;;;20.20;73.60;;;;;;5052507;28;20025;-91
2021/05/08 11:16:15;;;;;;;7.00;3.50;;;20.00;73.40;;;;;;5031143;28;20497;-92
2021/05/08 11:18:43;;;;;;;8.65;3.40;;;20.20;73.60;;;;;;5052128;28;20513;-90
2021/05/08 11:21:15;;;;;;;12.27;6.65;;;20.50;75.20;;;;;;5052456;28;20577;-92
2021/05/08 11:23:52;;;;;;;19.05;6.40;;;20.70;74.30;;;;;;5035992;28;20044;-90
2021/05/08 11:26:24;;;;;;;113.57;40.88;;;20.70;74.40;;;;;;5036264;28;20025;-92
2021/05/08 11:29:11;;;;;;;8.63;4.18;;;20.80;73.10;;;;;;5052568;28;20033;-92
2021/05/08 11:31:41;;;;;;;19.33;7.05;;;20.80;74.40;;;;;;5034981;28;20021;-92
2021/05/08 11:34:20;;;;;;;13.32;4.55;;;21.00;74.00;;;;;;5052343;28;20021;-91
2021/05/08 11:37:02;;;;;;;12.50;5.63;;;20.90;72.90;;;;;;5037379;28;20025;-96
2021/05/08 11:39:29;;;;;;;11.32;4.75;;;20.90;73.70;;;;;;5035077;28;20021;-91
2021/05/08 11:42:24;;;;;;;9.00;4.22;;;20.90;73.70;;;;;;5034277;28;20025;-92
2021/05/08 11:45:00;;;;;;;9.55;4.50;;;20.90;75.20;;;;;;5039740;28;20045;-96
2021/05/08 11:47:30;;;;;;;11.57;4.28;;;21.20;73.10;;;;;;5053378;28;20096;-92
2021/05/08 11:50:05;;;;;;;7.15;3.80;;;21.40;71.80;;;;;;5044558;28;20029;-93
2021/05/08 11:52:33;;;;;;;9.65;3.85;;;21.70;71.10;;;;;;5030283;28;20108;-92
2021/05/08 11:54:58;;;;;;;11.65;4.07;;;21.40;71.90;;;;;;5033767;28;20059;-93
2021/05/08 11:57:24;;;;;;;8.23;3.67;;;21.60;71.90;;;;;;5051263;28;20029;-90
2021/05/08 11:59:59;;;;;;;9.98;3.80;;;21.90;70.80;;;;;;5053876;28;20093;-92
2021/05/08 12:02:26;;;;;;;6.13;3.40;;;22.10;69.30;;;;;;5044386;28;20519;-96
2021/05/08 12:04:59;;;;;;;6.45;3.67;;;22.30;69.90;;;;;;5031754;28;20039;-96
2021/05/08 12:07:29;;;;;;;7.78;3.40;;;22.40;69.10;;;;;;5032918;28;20017;-87
2021/05/08 12:10:11;;;;;;;7.72;4.00;;;22.40;68.50;;;;;;5050090;28;20025;-88
2021/05/08 12:13:01;;;;;;;9.30;3.80;;;22.30;69.00;;;;;;5053174;28;20603;-96
2021/05/08 12:16:16;;;;;;;6.15;3.15;;;22.60;68.70;;;;;;5079321;22;20052;-96
2021/05/08 12:34:11;;;;;;;4.63;2.50;;;22.50;69.00;;;;;;4989211;28;20061;-96
2021/05/08 14:23:18;;;;;;;;;;;;;;;;;;;;;
2021/05/08 14:25:54;;;;;;;3.50;1.63;;;35.80;40.00;;;;;;4956785;29;20053;-95
2021/05/08 14:43:47;;;;;;;6.38;1.58;;;37.20;36.30;;;;;;4996421;28;20050;-95
2021/05/08 14:46:41;;;;;;;4.10;1.40;;;37.10;36.00;;;;;;4993277;28;20026;-96
2021/05/08 14:49:48;;;;;;;4.88;1.40;;;37.30;36.30;;;;;;4990522;28;20129;-94
2021/05/08 14:52:36;;;;;;;3.63;1.50;;;37.20;35.80;;;;;;5009548;28;20033;-96
2021/05/08 14:55:11;;;;;;;2.60;1.40;;;37.60;36.40;;;;;;4987385;28;20033;-95
2021/05/08 14:57:53;;;;;;;;;;;;;;;;;;;;;
2021/05/08 15:00:42;;;;;;;3.33;1.00;;;37.70;36.00;;;;;;5000863;28;20456;-96
2021/05/08 15:03:49;;;;;;;3.40;1.30;;;38.80;34.40;;;;;;5005795;28;20077;-96
2021/05/08 15:06:15;;;;;;;4.22;1.45;;;39.50;33.80;;;;;;5000604;28;20031;-95
2021/05/08 15:08:41;;;;;;;1.92;1.38;;;38.50;34.50;;;;;;4997193;28;20034;-95
2021/05/08 15:11:06;;;;;;;6.18;1.08;;;38.30;35.00;;;;;;4996058;28;20029;-95
2021/05/08 15:13:35;;;;;;;2.00;1.00;;;38.40;34.50;;;;;;4995778;28;20533;-96
2021/05/08 15:16:29;;;;;;;3.17;1.45;;;38.40;34.00;;;;;;4996436;28;20026;-95
2021/05/08 15:18:58;;;;;;;1.92;1.13;;;38.80;34.30;;;;;;5002023;28;20022;-96
2021/05/08 15:21:46;;;;;;;4.82;1.55;;;38.20;34.60;;;;;;5002755;28;20387;-96
2021/05/08 15:24:31;;;;;;;3.90;1.30;;;39.50;34.10;;;;;;5003454;28;20026;-95